Time;durP1;ratioP1;P1;durP2;ratioP2;P2;SDS_P1;SDS_P2;PMS_P1;PMS_P2;Temp;Humidity;BMP_temperature;BMP_pressure;BME280_temperature;BME280_humidity;BME280_pressure;Samples;Min_cycle;Max_cycle;Signal;HPM_P1;HPM_P2
2021/08/01 00:00:47;;;;;;;9.25;4.95;;;;;;;28.80;40.28;93690.63;4985234;28;20120;-77
2021/08/01 00:03:12;;;;;;;7.18;5.00;;;;;;;28.83;40.37;93687.09;4982439;28;20042;-77
2021/08/01 00:05:38;;;;;;;6.68;4.90;;;;;;;29.02;40.52;93696.59;4983238;28;20120;-76
2021/08/01 00:08:03;;;;;;;6.78;4.57;;;;;;;28.95;39.76;93676.88;4985897;28;20038;-79
2021/08/01 00:10:29;;;;;;;11.52;5.47;;;;;;;29.00;40.63;93685.34;4982823;28;20088;-78
2021/08/01 00:12:55;;;;;;;9.05;5.55;;;;;;;29.04;40.72;93688.78;4982031;28;20137;-77
2021/08/01 00:15:21;;;;;;;7.25;5.55;;;;;;;29.07;40.63;93689.94;4986222;28;20034;-78
2021/08/01 00:17:46;;;;;;;5.70;5.20;;;;;;;28.95;41.11;93687.75;4986490;28;20086;-78
2021/08/01 00:20:12;;;;;;;6.45;5.85;;;;;;;28.99;41.01;93688.47;4988894;28;21012;-77
2021/08/01 00:22:37;;;;;;;9.82;5.72;;;;;;;28.96;40.45;93694.75;4987156;28;20037;-77
2021/08/01 00:25:03;;;;;;;10.35;6.30;;;;;;;28.87;41.15;93691.75;4988316;28;20046;-79
2021/08/01 00:27:33;;;;;;;15.75;7.20;;;;;;;28.74;41.20;93694.19;4985920;28;20049;-78
2021/08/01 00:29:59;;;;;;;8.00;6.05;;;;;;;28.74;41.58;93689.53;4988061;28;20046;-77
2021/08/01 00:32:24;;;;;;;11.07;7.13;;;;;;;28.70;42.18;93688.78;4993428;28;20038;-77
2021/08/01 00:34:50;;;;;;;8.00;7.10;;;;;;;28.52;42.24;93688.22;4987950;28;21011;-78
2021/08/01 00:37:15;;;;;;;13.15;6.93;;;;;;;28.56;41.77;93682.72;4985078;28;20041;-78
2021/08/01 00:39:40;;;;;;;11.73;7.40;;;;;;;28.54;42.25;93680.41;4987334;28;20046;-78
2021/08/01 00:42:07;;;;;;;8.13;6.90;;;;;;;28.60;41.96;93678.78;4986493;28;20118;-78
2021/08/01 00:44:33;;;;;;;10.20;7.03;;;;;;;28.60;42.30;93689.66;4985551;28;20140;-76
2021/08/01 00:46:58;;;;;;;9.32;6.85;;;;;;;28.61;42.08;93671.41;4988096;28;20588;-78
2021/08/01 00:49:24;;;;;;;12.13;6.30;;;;;;;28.78;41.64;93700.41;4987336;28;20026;-79
2021/08/01 00:51:49;;;;;;;11.07;6.50;;;;;;;28.71;41.38;93690.34;4988253;28;20065;-78
2021/08/01 00:54:15;;;;;;;6.72;6.07;;;;;;;28.67;41.70;93710.59;4985922;28;20062;-79
2021/08/01 00:56:40;;;;;;;8.02;6.70;;;;;;;28.68;41.93;93709.41;4987254;28;20039;-77
2021/08/01 00:59:06;;;;;;;9.65;6.35;;;;;;;28.60;42.02;93697.06;4982096;28;20041;-77
2021/08/01 01:01:38;;;;;;;9.90;6.22;;;;;;;28.53;42.59;93694.41;4989649;28;20388;-78
2021/08/01 01:04:07;;;;;;;6.75;6.05;;;;;;;28.55;42.54;93703.69;4987158;28;20038;-78
2021/08/01 01:06:52;;;;;;;8.57;5.82;;;;;;;28.52;42.26;93709.97;4990112;28;20535;-75
2021/08/01 01:09:33;;;;;;;8.50;6.97;;;;;;;28.51;43.29;93708.41;4986153;28;20057;-77
2021/08/01 01:12:04;;;;;;;9.52;6.45;;;;;;;28.47;44.01;93710.41;4994846;28;20064;-78
2021/08/01 01:14:33;;;;;;;13.45;7.05;;;;;;;28.37;44.59;93703.88;4993095;28;20169;-76
2021/08/01 01:17:02;;;;;;;9.75;7.65;;;;;;;28.26;44.50;93702.44;4986416;28;20126;-79
2021/08/01 01:20:12;;;;;;;12.35;7.25;;;;;;;28.28;44.82;93719.13;4988859;28;20038;-77
2021/08/01 01:23:20;;;;;;;9.98;7.60;;;;;;;28.16;45.29;93714.16;4984247;28;20112;-77
2021/08/01 01:26:00;;;;;;;10.20;7.25;;;;;;;28.01;46.13;93703.41;4987493;28;20053;-77
2021/08/01 01:28:40;;;;;;;9.43;6.80;;;;;;;27.71;46.70;93700.53;4984825;28;20444;-77
2021/08/01 01:31:28;;;;;;;12.38;7.72;;;;;;;27.51;46.63;93704.94;4989155;28;20417;-77
2021/08/01 01:34:06;;;;;;;10.27;8.32;;;;;;;27.45;46.39;93709.22;4990613;28;21001;-78
2021/08/01 01:36:33;;;;;;;14.10;7.95;;;;;;;27.48;46.42;93709.19;4991868;28;20050;-77
2021/08/01 01:39:02;;;;;;;11.00;6.57;;;;;;;27.39;47.25;93697.22;4988076;28;20051;-79
2021/08/01 01:41:28;;;;;;;7.68;6.95;;;;;;;27.45;47.21;93709.22;4988775;28;20041;-77
2021/08/01 01:43:54;;;;;;;11.40;7.15;;;;;;;27.45;47.40;93711.94;4991002;28;20041;-78
2021/08/01 01:46:21;;;;;;;14.70;7.95;;;;;;;27.37;47.52;93696.84;4987620;28;20026;-79
2021/08/01 01:48:48;;;;;;;15.77;8.07;;;;;;;27.37;47.52;93703.03;4990380;28;20159;-78
2021/08/01 01:51:14;;;;;;;12.00;7.50;;;;;;;27.45;47.81;93715.41;4987109;28;20117;-77
2021/08/01 01:53:42;;;;;;;10.88;8.10;;;;;;;27.19;47.80;93696.94;4988646;28;20590;-77
2021/08/01 01:56:09;;;;;;;9.65;8.15;;;;;;;27.29;48.07;93727.91;4987129;28;20430;-77
2021/08/01 01:58:36;;;;;;;12.80;8.52;;;;;;;27.04;48.42;93723.38;4984943;28;20535;-77
2021/08/01 02:01:02;;;;;;;11.80;8.25;;;;;;;26.94;48.84;93724.19;4988665;28;20038;-77
2021/08/01 02:03:28;;;;;;;11.98;8.73;;;;;;;26.53;49.11;93682.47;4986671;28;20045;-77
2021/08/01 02:05:54;;;;;;;10.75;9.60;;;;;;;26.48;49.03;93691.00;4988636;28;20038;-78
2021/08/01 02:08:20;;;;;;;17.67;12.15;;;;;;;26.29;49.81;93705.75;4987214;28;20046;-77
2021/08/01 02:10:52;;;;;;;16.27;10.32;;;;;;;26.00;50.56;93718.50;4991202;28;20563;-77
2021/08/01 02:13:25;;;;;;;10.70;9.15;;;;;;;25.99;50.68;93698.00;4990778;28;20531;-75
2021/08/01 02:15:54;;;;;;;16.92;10.73;;;;;;;26.09;50.76;93713.50;4990341;28;20038;-77
2021/08/01 02:18:31;;;;;;;11.88;9.57;;;;;;;26.20;50.61;93713.44;4986341;28;20786;-77
2021/08/01 02:20:58;;;;;;;15.20;9.15;;;;;;;26.22;51.25;93708.47;4987483;28;20042;-77
2021/08/01 02:23:26;;;;;;;16.88;9.15;;;;;;;26.22;49.82;93717.38;4988565;28;20188;-77
2021/08/01 02:25:53;;;;;;;13.23;9.02;;;;;;;26.26;50.18;93718.13;4983566;28;20049;-77
2021/08/01 02:28:22;;;;;;;11.57;8.32;;;;;;;26.16;50.37;93699.16;4987768;28;20030;-76
2021/08/01 02:30:48;;;;;;;13.88;8.65;;;;;;;26.15;50.17;93717.31;4984066;28;20596;-78
2021/08/01 02:33:15;;;;;;;12.30;8.93;;;;;;;26.11;50.05;93710.38;4989016;28;20034;-78
2021/08/01 02:35:40;;;;;;;15.45;9.43;;;;;;;26.13;50.38;93699.94;4984007;28;20524;-77
2021/08/01 02:38:07;;;;;;;9.75;7.97;;;;;;;26.18;50.05;93711.16;4984860;28;20126;-76
2021/08/01 02:40:36;;;;;;;9.43;8.00;;;;;;;26.03;50.85;93717.75;4988351;28;20559;-76
2021/08/01 02:43:08;;;;;;;9.57;8.23;;;;;;;26.12;50.31;93711.94;4983972;28;20448;-77
2021/08/01 02:45:34;;;;;;;12.20;8.32;;;;;;;26.31;50.12;93711.53;4980339;28;20042;-80
2021/08/01 02:48:02;;;;;;;10.07;8.40;;;;;;;26.48;49.49;93737.06;4986105;28;20104;-77
2021/08/01 02:50:30;;;;;;;9.98;8.23;;;;;;;26.41;49.86;93729.72;4989535;28;20038;-77
2021/08/01 02:53:01;;;;;;;9.40;7.95;;;;;;;26.44;49.46;93720.81;4987301;28;20026;-78
2021/08/01 02:55:32;;;;;;;14.18;8.73;;;;;;;26.40;49.84;93721.97;4986398;28;20064;-78
2021/08/01 02:57:58;;;;;;;9.88;8.52;;;;;;;26.29;49.44;93733.59;4987239;28;20076;-77
2021/08/01 03:00:25;;;;;;;9.20;7.47;;;;;;;25.70;50.76;93723.53;4989144;28;20053;-77
2021/08/01 03:02:51;;;;;;;9.95;8.55;;;;;;;25.37;52.48;93744.31;4983672;28;20042;-77
2021/08/01 03:05:18;;;;;;;16.48;10.77;;;;;;;25.38;52.47;93742.38;4984688;28;20042;-76
2021/08/01 03:07:44;;;;;;;11.85;9.35;;;;;;;25.03;53.84;93740.31;4988886;28;20033;-79
2021/08/01 03:10:15;;;;;;;12.63;8.73;;;;;;;25.39;52.75;93733.09;4991241;28;20026;-76
2021/08/01 03:12:46;;;;;;;10.90;8.38;;;;;;;25.61;52.23;93732.00;4987231;28;20044;-77
2021/08/01 03:15:11;;;;;;;15.27;9.57;;;;;;;25.63;52.17;93729.69;4993559;28;20133;-77
2021/08/01 03:17:37;;;;;;;12.93;9.10;;;;;;;25.61;51.97;93726.59;4985010;28;20046;-77
2021/08/01 03:20:04;;;;;;;12.15;9.10;;;;;;;25.74;51.36;93740.53;4990225;28;20378;-78
2021/08/01 03:22:30;;;;;;;11.55;8.90;;;;;;;25.77;51.51;93745.19;4985353;28;20123;-78
2021/08/01 03:24:55;;;;;;;16.40;10.70;;;;;;;25.63;51.40;93732.41;4984389;28;20132;-77
2021/08/01 03:27:20;;;;;;;13.98;9.63;;;;;;;25.82;51.44;93753.69;4987139;28;20779;-80
2021/08/01 03:29:46;;;;;;;10.20;8.98;;;;;;;25.78;51.30;93746.72;4983967;28;20087;-78
2021/08/01 03:32:11;;;;;;;14.32;9.15;;;;;;;25.76;51.14;93736.28;4983359;28;20072;-76
2021/08/01 03:34:36;;;;;;;12.50;8.98;;;;;;;25.82;51.03;93747.50;4990305;28;20484;-77
2021/08/01 03:37:02;;;;;;;14.43;8.98;;;;;;;26.02;50.71;93772.28;4986215;28;20035;-77
2021/08/01 03:39:33;;;;;;;12.05;8.52;;;;;;;25.93;50.90;93748.28;4983406;28;20073;-77
2021/08/01 03:41:59;;;;;;;10.07;8.20;;;;;;;26.06;50.76;93768.41;4986569;28;20038;-79
2021/08/01 03:44:24;;;;;;;14.30;9.07;;;;;;;26.04;50.68;93753.72;4985419;28;20057;-78
2021/08/01 03:46:49;;;;;;;14.63;9.02;;;;;;;26.04;50.47;93765.34;4984644;28;20584;-78
2021/08/01 03:49:15;;;;;;;11.07;9.60;;;;;;;26.03;50.47;93752.94;4988215;28;20882;-77
2021/08/01 03:51:40;;;;;;;9.68;8.52;;;;;;;25.94;51.05;93755.25;4988415;28;20501;-77
2021/08/01 03:54:06;;;;;;;10.48;8.50;;;;;;;26.03;51.13;93757.59;4991862;28;20534;-78
2021/08/01 03:56:31;;;;;;;13.98;8.70;;;;;;;25.97;51.22;93740.94;4991501;28;20052;-77
2021/08/01 03:58:56;;;;;;;12.55;9.25;;;;;;;26.14;50.63;93745.59;4990035;28;20794;-77
2021/08/01 04:01:22;;;;;;;9.93;8.80;;;;;;;26.22;50.81;93757.22;4990874;28;20026;-77
2021/08/01 04:03:48;;;;;;;10.75;9.38;;;;;;;26.23;51.01;93759.56;4990043;28;20153;-78
2021/08/01 04:06:13;;;;;;;13.95;9.27;;;;;;;26.31;51.06;93763.00;4996959;28;20038;-77
2021/08/01 04:08:38;;;;;;;12.63;9.45;;;;;;;26.34;50.99;93761.47;4990078;28;20038;-79
2021/08/01 04:11:05;;;;;;;12.38;8.88;;;;;;;26.37;50.16;93744.44;4987641;28;20038;-78
2021/08/01 04:13:31;;;;;;;16.70;9.63;;;;;;;26.51;49.52;93760.66;4988947;28;20037;-77
2021/08/01 04:15:56;;;;;;;14.50;9.25;;;;;;;26.54;49.20;93760.66;4994973;28;20036;-78
2021/08/01 04:18:22;;;;;;;15.32;11.02;;;;;;;26.17;49.82;93698.75;4989622;28;20108;-76
2021/08/01 04:20:47;;;;;;;16.90;11.18;;;;;;;26.65;50.11;93766.84;4991048;28;20038;-77
2021/08/01 04:23:12;;;;;;;18.35;11.95;;;;;;;26.66;50.40;93756.78;4989304;28;20035;-77
2021/08/01 04:25:38;;;;;;;19.35;12.73;;;;;;;26.79;50.76;93760.59;4989286;28;20050;-77
2021/08/01 04:28:04;;;;;;;16.85;12.23;;;;;;;26.84;51.04;93767.56;4990109;28;20431;-79
2021/08/01 04:30:29;;;;;;;16.88;14.32;;;;;;;26.81;51.57;93763.72;4989502;28;20069;-78
2021/08/01 04:32:54;;;;;;;17.95;14.85;;;;;;;26.85;51.46;93764.47;4988771;28;20049;-77
2021/08/01 04:35:20;;;;;;;22.00;14.50;;;;;;;27.01;50.74;93766.78;4991075;28;20125;-79
2021/08/01 04:37:45;;;;;;;19.58;14.82;;;;;;;27.00;50.79;93755.16;4987890;28;20026;-77
2021/08/01 04:40:11;;;;;;;23.77;15.18;;;;;;;27.01;50.09;93756.72;4989802;28;20034;-77
2021/08/01 04:42:37;;;;;;;16.63;14.15;;;;;;;27.12;50.04;93776.41;4990629;28;20113;-75
2021/08/01 04:45:03;;;;;;;17.55;13.35;;;;;;;27.28;50.21;93780.63;4989509;28;20038;-76
2021/08/01 04:47:28;;;;;;;18.95;13.63;;;;;;;27.22;50.17;93766.69;4991219;28;20026;-78
2021/08/01 04:49:54;;;;;;;20.90;13.70;;;;;;;27.33;50.57;93769.34;4989051;28;20064;-78
2021/08/01 04:52:19;;;;;;;17.45;13.05;;;;;;;27.39;49.53;93781.34;4986639;28;20058;-78
2021/08/01 04:54:45;;;;;;;17.85;12.32;;;;;;;27.42;49.01;93785.97;4988231;28;20088;-76
2021/08/01 04:57:11;;;;;;;18.40;13.60;;;;;;;27.41;48.97;93784.44;4989481;28;20458;-76
2021/08/01 04:59:36;;;;;;;19.83;12.00;;;;;;;27.48;48.43;93789.84;4985778;28;20049;-78
2021/08/01 05:02:03;;;;;;;16.85;11.73;;;;;;;27.60;49.00;93796.78;4991274;28;20033;-77
2021/08/01 05:04:28;;;;;;;20.58;12.75;;;;;;;27.62;48.63;93795.22;4990989;28;20038;-76
2021/08/01 05:06:54;;;;;;;16.77;12.43;;;;;;;27.49;48.34;93769.69;4989524;28;20031;-77
2021/08/01 05:09:20;;;;;;;22.13;12.80;;;;;;;27.52;48.85;93769.66;4990126;28;20117;-77
2021/08/01 05:11:45;;;;;;;23.42;14.48;;;;;;;27.61;48.71;93771.19;4988379;28;20127;-76
2021/08/01 05:14:10;;;;;;;19.02;12.82;;;;;;;27.60;48.96;93770.41;4988072;28;20041;-78
2021/08/01 05:16:36;;;;;;;23.02;13.38;;;;;;;27.60;49.27;93775.84;4985040;28;20030;-77
2021/08/01 05:19:01;;;;;;;19.42;12.63;;;;;;;27.49;49.19;93775.13;4990500;28;20482;-77
2021/08/01 05:21:26;;;;;;;23.80;13.60;;;;;;;27.55;49.47;93776.28;4988359;28;20117;-77
2021/08/01 05:23:52;;;;;;;21.80;13.90;;;;;;;27.77;48.78;93780.41;4988628;28;20050;-77
2021/08/01 05:26:18;;;;;;;17.75;12.93;;;;;;;27.85;48.53;93784.63;4988789;28;20500;-76
2021/08/01 05:28:43;;;;;;;15.02;12.13;;;;;;;28.03;46.79;93787.22;4989772;28;20081;-76
2021/08/01 05:31:08;;;;;;;17.58;12.10;;;;;;;28.22;46.21;93791.38;4996563;28;20568;-78
2021/08/01 05:33:34;;;;;;;18.25;13.07;;;;;;;28.11;47.17;93787.94;4986542;28;20526;-77
2021/08/01 05:36:05;;;;;;;21.20;14.23;;;;;;;28.20;46.99;93799.16;4985215;28;20501;-76
2021/08/01 05:38:31;;;;;;;18.25;12.70;;;;;;;28.13;47.92;93791.06;4987439;28;20038;-76
2021/08/01 05:40:56;;;;;;;20.90;14.95;;;;;;;28.25;47.68;93793.28;4986882;28;20029;-76
2021/08/01 05:43:21;;;;;;;25.23;13.48;;;;;;;28.35;47.67;93804.06;4986673;28;20117;-76
2021/08/01 05:45:47;;;;;;;19.33;13.70;;;;;;;28.20;47.31;93780.91;4988777;28;20079;-76
2021/08/01 05:48:12;;;;;;;19.30;13.38;;;;;;;28.43;47.44;93808.28;4986569;28;20031;-77
2021/08/01 05:50:37;;;;;;;22.23;13.10;;;;;;;28.44;46.47;93806.34;4987251;28;20157;-75
2021/08/01 05:53:03;;;;;;;16.42;11.48;;;;;;;28.45;46.68;93794.28;4983883;28;20034;-77
2021/08/01 05:55:28;;;;;;;19.63;13.70;;;;;;;28.62;46.24;93806.97;4986702;28;20022;-78
2021/08/01 05:57:53;;;;;;;18.45;12.73;;;;;;;28.67;46.00;93792.94;4986526;28;20037;-76
2021/08/01 06:00:19;;;;;;;11.75;10.45;;;;;;;28.60;44.16;93781.34;4987528;28;20842;-76
2021/08/01 06:02:44;;;;;;;13.30;10.90;;;;;;;28.76;44.58;93800.63;4988373;28;20037;-78
2021/08/01 06:05:10;;;;;;;14.55;10.93;;;;;;;28.58;44.33;93779.03;4985136;28;20120;-76
2021/08/01 06:07:35;;;;;;;16.30;11.90;;;;;;;28.67;45.04;93787.50;4994866;28;20033;-76
2021/08/01 06:10:01;;;;;;;14.43;10.80;;;;;;;28.72;44.12;93792.53;4986098;28;20701;-76
2021/08/01 06:12:26;;;;;;;11.60;9.48;;;;;;;28.72;43.90;93795.25;4987549;28;20568;-77
2021/08/01 06:14:52;;;;;;;16.13;11.60;;;;;;;28.84;43.39;93797.44;4985911;28;20799;-75
2021/08/01 06:17:17;;;;;;;17.42;10.70;;;;;;;28.81;44.28;93800.97;4987099;28;20111;-76
2021/08/01 06:19:42;;;;;;;16.25;10.60;;;;;;;28.85;44.98;93788.09;4985564;28;20589;-75
2021/08/01 06:22:08;;;;;;;19.23;11.32;;;;;;;28.49;44.23;93795.03;4985386;28;20029;-75
2021/08/01 06:24:33;;;;;;;17.67;11.82;;;;;;;28.54;44.69;93802.75;4986586;28;20050;-77
2021/08/01 06:26:59;;;;;;;18.45;11.35;;;;;;;28.65;44.42;93794.50;4984535;28;20445;-78
2021/08/01 06:29:24;;;;;;;18.10;10.35;;;;;;;28.90;43.90;93788.84;4987071;28;20084;-77
2021/08/01 06:31:49;;;;;;;19.67;11.70;;;;;;;28.68;45.16;93788.25;4983521;28;20033;-76
2021/08/01 06:34:15;;;;;;;18.20;13.55;;;;;;;28.58;46.04;93781.75;4987472;28;20011;-76
2021/08/01 06:36:40;;;;;;;19.02;12.68;;;;;;;28.75;45.93;93778.09;4984436;28;20588;-75
2021/08/01 06:39:08;;;;;;;13.95;12.30;;;;;;;28.94;45.71;93770.53;4986768;28;20044;-76
2021/08/01 06:41:34;;;;;;;18.73;12.75;;;;;;;29.01;45.29;93760.34;4986685;28;20524;-77
2021/08/01 06:44:00;;;;;;;15.65;12.63;;;;;;;29.17;44.96;93771.44;4987047;28;20037;-78
2021/08/01 06:46:25;;;;;;;15.63;12.85;;;;;;;29.03;45.00;93740.91;4986673;28;20045;-76
2021/08/01 06:48:50;;;;;;;18.17;12.18;;;;;;;29.52;44.96;93770.25;4985896;28;20033;-76
2021/08/01 06:51:16;;;;;;;20.10;12.32;;;;;;;29.21;44.53;93765.97;4989764;28;20755;-78
2021/08/01 06:53:41;;;;;;;19.75;12.02;;;;;;;29.61;45.46;93767.81;4983797;28;20039;-77
2021/08/01 06:56:07;;;;;;;23.17;11.43;;;;;;;29.82;43.30;93766.72;4986673;28;20591;-77
2021/08/01 06:58:32;;;;;;;18.70;11.45;;;;;;;29.72;43.54;93773.09;4986448;28;20714;-75
2021/08/01 07:00:59;;;;;;;17.48;11.25;;;;;;;29.46;43.56;93777.34;4990045;28;20083;-78
2021/08/01 07:03:26;;;;;;;14.95;12.52;;;;;;;29.84;44.08;93774.50;4989072;28;20041;-77
2021/08/01 07:05:51;;;;;;;22.88;12.95;;;;;;;29.89;44.68;93765.88;4987064;28;20069;-77
2021/08/01 07:08:16;;;;;;;22.25;12.77;;;;;;;30.08;44.51;93773.38;4986209;28;20125;-76
2021/08/01 07:10:42;;;;;;;21.13;14.55;;;;;;;30.03;44.26;93733.75;4987957;28;20034;-78
2021/08/01 07:13:09;;;;;;;22.73;14.60;;;;;;;30.33;44.46;93762.09;4987281;28;20037;-76
2021/08/01 07:15:37;;;;;;;21.08;13.13;;;;;;;30.41;44.83;93780.66;4984674;28;20038;-78
2021/08/01 07:18:03;;;;;;;20.13;13.07;;;;;;;30.57;43.22;93777.28;4986777;28;20038;-77
2021/08/01 07:20:29;;;;;;;17.42;12.77;;;;;;;30.61;42.53;93783.47;4985817;28;20034;-78
2021/08/01 07:22:55;;;;;;;14.57;12.82;;;;;;;30.63;43.59;93769.41;4984717;28;20038;-77
2021/08/01 07:25:23;;;;;;;18.38;13.02;;;;;;;30.80;42.14;93787.41;4986411;28;20975;-78
2021/08/01 07:27:48;;;;;;;19.67;13.63;;;;;;;30.89;42.47;93798.53;4985867;28;20038;-77
2021/08/01 07:30:14;;;;;;;16.45;13.13;;;;;;;30.96;42.87;93795.69;4987010;28;20038;-77
2021/08/01 07:32:39;;;;;;;22.15;14.60;;;;;;;31.07;42.90;93788.13;4985992;28;20524;-77
2021/08/01 07:35:05;;;;;;;21.15;13.15;;;;;;;30.98;42.72;93785.91;4984742;28;20130;-76
2021/08/01 07:37:31;;;;;;;16.10;12.85;;;;;;;31.05;42.35;93795.94;4986621;28;20088;-78
2021/08/01 07:39:56;;;;;;;22.33;13.25;;;;;;;30.95;42.31;93772.31;4986303;28;20042;-76
2021/08/01 07:42:21;;;;;;;21.00;12.65;;;;;;;31.13;42.93;93774.75;4985657;28;20046;-77
2021/08/01 07:45:01;;;;;;;19.90;12.30;;;;;;;31.16;41.82;93777.41;4987278;28;20042;-76
2021/08/01 07:47:27;;;;;;;18.73;14.77;;;;;;;31.35;42.17;93770.41;4985039;28;20038;-76
2021/08/01 07:49:53;;;;;;;16.05;12.07;;;;;;;31.36;41.61;93778.19;4988176;28;20026;-76
2021/08/01 07:52:20;;;;;;;20.42;13.13;;;;;;;31.59;41.20;93790.22;4986250;28;20511;-76
2021/08/01 07:54:46;;;;;;;16.50;12.55;;;;;;;31.67;41.05;93797.06;4984582;28;20402;-78
2021/08/01 07:57:28;;;;;;;17.75;12.93;;;;;;;31.61;41.32;93769.50;4984429;28;20038;-76
2021/08/01 07:59:54;;;;;;;20.23;14.05;;;;;;;31.70;40.85;93797.03;4988056;28;20070;-78
2021/08/01 08:02:20;;;;;;;16.83;13.75;;;;;;;31.52;41.05;93790.38;4984770;28;20345;-77
2021/08/01 08:04:47;;;;;;;18.58;12.15;;;;;;;31.37;41.26;93789.88;4983845;28;20636;-78
2021/08/01 08:07:12;;;;;;;20.40;13.18;;;;;;;31.59;40.70;93787.50;4986721;28;20022;-78
2021/08/01 08:09:38;;;;;;;20.58;13.00;;;;;;;31.71;40.62;93770.47;4987795;28;20038;-77
2021/08/01 08:12:03;;;;;;;18.40;14.07;;;;;;;31.91;39.87;93782.13;4987525;28;20035;-77
2021/08/01 08:14:29;;;;;;;17.23;12.35;;;;;;;32.03;39.73;93769.75;4984961;28;20038;-77
2021/08/01 08:16:54;;;;;;;15.50;10.65;;;;;;;32.14;41.20;93776.56;4988637;28;20825;-76
2021/08/01 08:19:20;;;;;;;17.10;12.93;;;;;;;31.97;40.11;93776.91;4982780;28;20032;-75
2021/08/01 08:21:45;;;;;;;15.68;13.13;;;;;;;32.08;41.59;93764.56;4984989;28;20042;-76
2021/08/01 08:24:11;;;;;;;18.75;12.25;;;;;;;32.14;40.12;93762.88;4985812;28;20035;-77
2021/08/01 08:26:36;;;;;;;18.05;12.65;;;;;;;32.18;40.07;93771.75;4986163;28;20039;-77
2021/08/01 08:29:01;;;;;;;16.70;12.13;;;;;;;32.28;39.49;93763.72;4987076;28;20488;-76
2021/08/01 08:31:27;;;;;;;26.63;13.20;;;;;;;32.29;39.83;93748.88;4985643;28;20761;-77
2021/08/01 08:33:52;;;;;;;14.30;11.80;;;;;;;32.22;39.59;93764.25;4986450;28;20113;-76
2021/08/01 08:36:17;;;;;;;15.77;11.07;;;;;;;32.23;39.31;93751.34;4989492;28;20069;-75
2021/08/01 08:38:43;;;;;;;20.77;11.60;;;;;;;32.20;39.39;93757.69;4990131;28;20100;-78
2021/08/01 08:41:13;;;;;;;21.38;12.30;;;;;;;32.12;38.54;93742.63;4989371;28;20121;-78
2021/08/01 08:43:39;;;;;;;16.70;11.75;;;;;;;31.91;38.82;93745.84;4985175;28;20140;-79
2021/08/01 08:46:08;;;;;;;16.80;11.52;;;;;;;32.20;39.76;93752.97;4985567;28;20048;-78
2021/08/01 08:48:35;;;;;;;13.88;12.32;;;;;;;32.23;38.35;93738.44;4987827;28;20512;-77
2021/08/01 08:51:00;;;;;;;19.77;10.80;;;;;;;31.93;37.91;93705.94;4988863;28;20069;-76
2021/08/01 08:53:27;;;;;;;15.48;9.80;;;;;;;32.25;38.26;93725.09;4989256;28;20113;-77
2021/08/01 08:55:53;;;;;;;15.02;11.20;;;;;;;32.12;37.57;93737.91;4982998;28;20030;-77
2021/08/01 08:58:26;;;;;;;14.73;11.07;;;;;;;32.30;38.07;93750.41;4985634;28;20026;-78
2021/08/01 09:00:52;;;;;;;17.52;10.63;;;;;;;31.98;37.31;93730.03;4968272;28;20918;-78
2021/08/01 09:03:17;;;;;;;12.15;10.35;;;;;;;32.25;37.19;93744.25;4980375;28;20042;-77
2021/08/01 09:05:43;;;;;;;13.68;10.18;;;;;;;32.04;37.44;93733.78;4988428;28;20605;-78
2021/08/01 09:08:08;;;;;;;16.52;11.68;;;;;;;32.22;37.54;93733.41;4988996;28;20590;-76
2021/08/01 09:10:34;;;;;;;16.75;11.05;;;;;;;32.52;38.43;93743.97;4990616;28;20112;-78
2021/08/01 09:12:59;;;;;;;17.50;11.52;;;;;;;32.34;37.18;93727.25;4985958;28;20065;-78
2021/08/01 09:15:28;;;;;;;15.55;11.43;;;;;;;32.55;36.56;93739.59;4989924;28;20404;-77
2021/08/01 09:17:54;;;;;;;20.90;12.18;;;;;;;32.65;36.88;93739.38;4988476;28;20046;-78
2021/08/01 09:20:30;;;;;;;13.60;10.57;;;;;;;32.63;37.35;93732.78;4990394;28;20852;-75
2021/08/01 09:23:01;;;;;;;17.73;10.77;;;;;;;32.55;36.75;93729.44;4991389;28;20688;-76
2021/08/01 09:25:32;;;;;;;14.98;11.68;;;;;;;32.48;36.94;93720.66;4989055;28;20061;-76
2021/08/01 09:28:14;;;;;;;20.15;11.82;;;;;;;32.50;37.16;93726.47;4984705;28;20565;-79
2021/08/01 09:30:49;;;;;;;15.77;11.18;;;;;;;32.54;37.21;93719.72;4985608;28;20107;-76
2021/08/01 09:33:17;;;;;;;18.90;11.90;;;;;;;32.93;36.33;93728.88;4983862;28;20046;-78
2021/08/01 09:35:42;;;;;;;18.42;11.15;;;;;;;32.80;36.83;93722.56;4987042;28;20145;-78
2021/08/01 09:38:08;;;;;;;13.38;11.27;;;;;;;32.80;38.61;93722.56;4988365;28;20466;-76
2021/08/01 09:40:34;;;;;;;22.38;12.02;;;;;;;32.99;36.58;93714.22;4988479;28;20030;-77
2021/08/01 09:43:13;;;;;;;20.50;11.68;;;;;;;33.03;36.32;93714.91;4986486;28;20039;-76
2021/08/01 09:45:39;;;;;;;19.42;10.98;;;;;;;33.15;36.66;93709.88;4988997;28;20503;-78
2021/08/01 09:48:19;;;;;;;17.08;11.50;;;;;;;33.28;35.62;93708.00;4987162;28;20069;-78
2021/08/01 09:51:02;;;;;;;18.98;12.40;;;;;;;33.36;35.46;93704.59;4988481;28;20041;-78
2021/08/01 09:53:29;;;;;;;15.15;11.82;;;;;;;33.13;35.63;93712.31;4991787;28;20523;-77
2021/08/01 09:56:17;;;;;;;14.50;11.50;;;;;;;33.22;35.25;93699.53;4982429;28;20022;-76
2021/08/01 09:58:45;;;;;;;21.73;11.05;;;;;;;33.37;35.39;93689.72;4995951;28;20034;-77
2021/08/01 10:01:12;;;;;;;15.45;11.50;;;;;;;33.47;35.57;93682.38;4986464;28;20026;-77
2021/08/01 10:03:49;;;;;;;19.17;12.23;;;;;;;33.59;35.24;93687.09;4988621;28;20401;-78
2021/08/01 10:06:17;;;;;;;19.15;12.55;;;;;;;33.69;34.90;93682.50;4984266;28;20046;-78
2021/08/01 10:08:50;;;;;;;19.17;12.85;;;;;;;33.63;37.41;93685.00;4985686;28;20041;-76
2021/08/01 10:11:21;;;;;;;21.65;12.07;;;;;;;33.37;35.25;93675.25;4983050;28;20530;-77
2021/08/01 10:13:50;;;;;;;18.95;11.90;;;;;;;33.55;36.05;93688.41;4987293;28;20032;-77
2021/08/01 10:16:15;;;;;;;20.40;12.80;;;;;;;33.65;35.91;93677.13;4986202;28;20041;-76
2021/08/01 10:18:43;;;;;;;16.92;12.35;;;;;;;33.48;35.07;93676.44;4986172;28;20097;-77
2021/08/01 10:21:11;;;;;;;20.05;11.63;;;;;;;33.54;35.30;93671.19;4982148;28;20036;-79
2021/08/01 10:23:41;;;;;;;29.13;12.48;;;;;;;33.40;34.85;93660.66;5001886;28;20511;-77
2021/08/01 10:26:09;;;;;;;16.50;11.55;;;;;;;33.60;35.21;93663.97;4986211;28;20042;-77
2021/08/01 10:28:47;;;;;;;20.25;13.02;;;;;;;33.79;34.77;93660.25;4988273;28;20081;-78
2021/08/01 10:31:15;;;;;;;22.38;13.02;;;;;;;33.81;35.28;93657.09;4981819;28;20081;-77
2021/08/01 10:33:47;;;;;;;18.73;13.35;;;;;;;33.60;35.79;93663.19;4987453;28;20416;-77
2021/08/01 10:36:20;;;;;;;15.13;12.77;;;;;;;33.88;35.22;93654.88;4987109;28;20550;-77
2021/08/01 10:38:47;;;;;;;15.55;11.85;;;;;;;33.93;35.45;93654.31;4987227;28;20545;-76
2021/08/01 10:41:14;;;;;;;23.20;12.77;;;;;;;33.83;35.20;93649.16;4986693;28;20053;-75
2021/08/01 10:43:41;;;;;;;21.58;13.32;;;;;;;33.76;34.49;93631.00;4988987;28;20038;-77
2021/08/01 10:46:08;;;;;;;17.58;12.48;;;;;;;34.06;34.75;93639.84;4986286;28;20038;-74
2021/08/01 10:48:34;;;;;;;15.38;11.38;;;;;;;34.33;35.40;93637.38;4982932;28;20504;-78
2021/08/01 10:51:00;;;;;;;20.92;12.60;;;;;;;34.34;34.67;93642.44;4987023;28;20124;-77
2021/08/01 10:53:27;;;;;;;23.10;12.13;;;;;;;34.47;35.57;93625.91;4991663;28;20081;-77
2021/08/01 10:56:30;;;;;;;16.45;12.82;;;;;;;34.59;36.55;93622.34;4987031;28;20030;-77
2021/08/01 10:58:55;;;;;;;22.38;13.05;;;;;;;34.71;35.51;93618.81;4986759;28;20069;-77
2021/08/01 11:01:21;;;;;;;21.25;12.43;;;;;;;34.77;34.38;93616.25;4990430;28;20140;-78
2021/08/01 11:03:46;;;;;;;17.23;12.52;;;;;;;34.73;34.76;93604.66;4985744;28;21041;-76
2021/08/01 11:06:34;;;;;;;18.90;11.73;;;;;;;34.74;34.28;93604.19;4989370;28;20041;-76
2021/08/01 11:09:10;;;;;;;20.10;12.18;;;;;;;34.69;34.37;93604.78;4984709;28;20133;-76
2021/08/01 11:11:35;;;;;;;18.40;11.05;;;;;;;34.75;33.18;93588.47;4985264;28;20130;-77
2021/08/01 11:14:01;;;;;;;18.05;11.70;;;;;;;34.88;33.94;93599.41;4982431;28;20416;-77
2021/08/01 11:16:32;;;;;;;18.50;11.77;;;;;;;34.94;33.80;93598.38;4982454;28;20026;-76
2021/08/01 11:18:59;;;;;;;17.23;11.00;;;;;;;34.95;33.10;93599.88;4992936;28;20244;-75
2021/08/01 11:21:36;;;;;;;13.80;10.40;;;;;;;34.88;33.03;93582.94;4987688;28;20038;-75
2021/08/01 11:24:06;;;;;;;16.50;10.27;;;;;;;34.86;32.05;93590.84;4981429;28;20043;-76